sensor_id;sensor_type;location;lat;lon;timestamp;pressure;altitude;pressure_sealevel;temperature;humidity
2841;BME280;53423;49.224;12.074;2022-10-30T00:00:17;98341.78;;;12.89;70.96
2841;BME280;53423;49.224;12.074;2022-10-30T00:02:47;98342.63;;;12.81;71.44
2841;BME280;53423;49.224;12.074;2022-10-30T00:05:15;98341.78;;;12.89;71.23
2841;BME280;53423;49.224;12.074;2022-10-30T00:07:44;98342.78;;;12.96;70.64
2841;BME280;53423;49.224;12.074;2022-10-30T00:10:12;98337.34;;;12.73;71.94
2841;BME280;53423;49.224;12.074;2022-10-30T00:12:40;98329.63;;;12.80;71.50
2841;BME280;53423;49.224;12.074;2022-10-30T00:15:08;98335.19;;;12.61;71.88
2841;BME280;53423;49.224;12.074;2022-10-30T00:17:36;98331.44;;;12.79;71.14
2841;BME280;53423;49.224;12.074;2022-10-30T00:20:07;98328.78;;;12.71;70.84
2841;BME280;53423;49.224;12.074;2022-10-30T00:22:35;98327.16;;;12.78;70.65
2841;BME280;53423;49.224;12.074;2022-10-30T00:25:04;98332.72;;;12.75;70.93
2841;BME280;53423;49.224;12.074;2022-10-30T00:27:32;98325.84;;;12.74;70.80
2841;BME280;53423;49.224;12.074;2022-10-30T00:29:59;98334.06;;;12.71;70.79
2841;BME280;53423;49.224;12.074;2022-10-30T00:32:27;98327.34;;;12.77;70.41
2841;BME280;53423;49.224;12.074;2022-10-30T00:34:55;98321.06;;;12.70;70.48
2841;BME280;53423;49.224;12.074;2022-10-30T00:37:24;98327.00;;;12.72;70.33
2841;BME280;53423;49.224;12.074;2022-10-30T00:39:52;98317.03;;;12.41;70.58
2841;BME280;53423;49.224;12.074;2022-10-30T00:42:19;98316.41;;;12.47;71.27
2841;BME280;53423;49.224;12.074;2022-10-30T00:44:49;98319.41;;;12.61;71.05
2841;BME280;53423;49.224;12.074;2022-10-30T00:47:20;98322.38;;;12.66;70.17
2841;BME280;53423;49.224;12.074;2022-10-30T00:49:53;98318.72;;;12.59;70.93
2841;BME280;53423;49.224;12.074;2022-10-30T00:52:26;98318.09;;;12.57;71.15
2841;BME280;53423;49.224;12.074;2022-10-30T00:54:57;98315.13;;;12.68;70.90
2841;BME280;53423;49.224;12.074;2022-10-30T00:57:28;98311.84;;;12.74;69.93
2841;BME280;53423;49.224;12.074;2022-10-30T00:59:56;98317.25;;;12.48;71.76
2841;BME280;53423;49.224;12.074;2022-10-30T01:02:24;98317.09;;;12.66;70.79
2841;BME280;53423;49.224;12.074;2022-10-30T01:04:53;98313.44;;;12.42;70.63
2841;BME280;53423;49.224;12.074;2022-10-30T01:07:23;98304.69;;;12.26;71.44
2841;BME280;53423;49.224;12.074;2022-10-30T01:09:51;98304.88;;;12.32;70.40
2841;BME280;53423;49.224;12.074;2022-10-30T01:12:19;98303.88;;;12.33;70.77
2841;BME280;53423;49.224;12.074;2022-10-30T01:14:51;98308.84;;;12.44;70.62
2841;BME280;53423;49.224;12.074;2022-10-30T01:17:50;98305.53;;;12.34;70.95
2841;BME280;53423;49.224;12.074;2022-10-30T01:20:44;98299.78;;;12.39;69.72
2841;BME280;53423;49.224;12.074;2022-10-30T01:23:24;98301.25;;;12.33;71.05
2841;BME280;53423;49.224;12.074;2022-10-30T01:26:08;98291.03;;;12.22;70.74
2841;BME280;53423;49.224;12.074;2022-10-30T01:28:52;98288.56;;;12.21;71.95
2841;BME280;53423;49.224;12.074;2022-10-30T01:31:35;98281.69;;;12.28;71.12
2841;BME280;53423;49.224;12.074;2022-10-30T01:34:16;98287.47;;;12.39;70.81
2841;BME280;53423;49.224;12.074;2022-10-30T01:36:49;98293.03;;;12.36;71.81
2841;BME280;53423;49.224;12.074;2022-10-30T01:39:23;98282.84;;;12.41;71.56
2841;BME280;53423;49.224;12.074;2022-10-30T01:41:52;98283.03;;;12.40;71.27
2841;BME280;53423;49.224;12.074;2022-10-30T01:44:23;98278.75;;;12.47;70.84
2841;BME280;53423;49.224;12.074;2022-10-30T01:47:03;98270.03;;;12.38;71.16
2841;BME280;53423;49.224;12.074;2022-10-30T01:49:50;98271.66;;;12.23;71.01
2841;BME280;53423;49.224;12.074;2022-10-30T01:52:34;98274.28;;;12.31;70.97
2841;BME280;53423;49.224;12.074;2022-10-30T01:55:13;98273.31;;;12.32;70.21
2841;BME280;53423;49.224;12.074;2022-10-30T01:57:50;98274.94;;;12.25;71.38
2841;BME280;53423;49.224;12.074;2022-10-30T02:00:21;98277.25;;;12.28;70.35
2841;BME280;53423;49.224;12.074;2022-10-30T02:02:50;98273.31;;;12.24;71.18
2841;BME280;53423;49.224;12.074;2022-10-30T02:05:24;98275.09;;;12.24;70.39
2841;BME280;53423;49.224;12.074;2022-10-30T02:07:54;98272.00;;;12.28;70.09
2841;BME280;53423;49.224;12.074;2022-10-30T02:10:24;98277.59;;;12.33;71.05
2841;BME280;53423;49.224;12.074;2022-10-30T02:12:52;98276.63;;;12.42;70.68
2841;BME280;53423;49.224;12.074;2022-10-30T02:15:20;98276.91;;;12.23;72.23
2841;BME280;53423;49.224;12.074;2022-10-30T02:17:48;98278.94;;;12.45;71.55
2841;BME280;53423;49.224;12.074;2022-10-30T02:20:17;98283.03;;;12.40;71.21
2841;BME280;53423;49.224;12.074;2022-10-30T02:22:45;98280.56;;;12.38;71.07
2841;BME280;53423;49.224;12.074;2022-10-30T02:25:14;98282.69;;;12.35;71.24
2841;BME280;53423;49.224;12.074;2022-10-30T02:27:41;98274.56;;;12.12;71.48
2841;BME280;53423;49.224;12.074;2022-10-30T02:30:10;98271.28;;;12.10;72.00
2841;BME280;53423;49.224;12.074;2022-10-30T02:32:38;98272.22;;;12.01;73.23
2841;BME280;53423;49.224;12.074;2022-10-30T02:35:06;98276.41;;;12.20;71.52
2841;BME280;53423;49.224;12.074;2022-10-30T02:37:35;98280.34;;;12.24;71.67
2841;BME280;53423;49.224;12.074;2022-10-30T02:40:06;98277.91;;;12.30;72.71
2841;BME280;53423;49.224;12.074;2022-10-30T02:42:34;98272.00;;;12.36;72.50
2841;BME280;53423;49.224;12.074;2022-10-30T02:45:02;98275.09;;;12.16;72.30
2841;BME280;53423;49.224;12.074;2022-10-30T02:47:30;98278.38;;;12.18;73.32
2841;BME280;53423;49.224;12.074;2022-10-30T02:49:59;98284.34;;;12.36;72.62
2841;BME280;53423;49.224;12.074;2022-10-30T02:52:26;98273.66;;;12.37;72.27
2841;BME280;53423;49.224;12.074;2022-10-30T02:54:56;98277.59;;;12.33;71.80
2841;BME280;53423;49.224;12.074;2022-10-30T02:57:23;98272.16;;;12.27;72.30
2841;BME280;53423;49.224;12.074;2022-10-30T02:59:51;98275.78;;;12.26;72.03
2841;BME280;53423;49.224;12.074;2022-10-30T03:02:19;98271.19;;;12.36;72.21
2841;BME280;53423;49.224;12.074;2022-10-30T03:04:46;98274.50;;;12.38;71.97
2841;BME280;53423;49.224;12.074;2022-10-30T03:07:14;98265.13;;;12.43;71.85
2841;BME280;53423;49.224;12.074;2022-10-30T03:09:42;98271.31;;;12.26;70.94
2841;BME280;53423;49.224;12.074;2022-10-30T03:12:11;98269.34;;;12.20;71.92
2841;BME280;53423;49.224;12.074;2022-10-30T03:14:39;98275.44;;;12.29;72.23
2841;BME280;53423;49.224;12.074;2022-10-30T03:17:07;98273.47;;;12.31;72.53
2841;BME280;53423;49.224;12.074;2022-10-30T03:19:34;98280.22;;;12.33;71.58
2841;BME280;53423;49.224;12.074;2022-10-30T03:22:02;98282.03;;;12.33;71.65
2841;BME280;53423;49.224;12.074;2022-10-30T03:24:30;98282.66;;;12.27;72.48
2841;BME280;53423;49.224;12.074;2022-10-30T03:26:58;98286.78;;;12.29;71.40
2841;BME280;53423;49.224;12.074;2022-10-30T03:29:27;98274.25;;;12.15;71.78
2841;BME280;53423;49.224;12.074;2022-10-30T03:31:55;98272.81;;;12.21;72.58
2841;BME280;53423;49.224;12.074;2022-10-30T03:34:23;98272.56;;;12.06;72.00
2841;BME280;53423;49.224;12.074;2022-10-30T03:36:50;98266.38;;;12.23;71.51
2841;BME280;53423;49.224;12.074;2022-10-30T03:39:18;98267.72;;;12.19;71.26
2841;BME280;53423;49.224;12.074;2022-10-30T03:41:46;98269.34;;;12.20;71.76
2841;BME280;53423;49.224;12.074;2022-10-30T03:44:13;98261.28;;;12.22;71.85
2841;BME280;53423;49.224;12.074;2022-10-30T03:46:43;98263.09;;;12.21;72.52
2841;BME280;53423;49.224;12.074;2022-10-30T03:49:10;98261.28;;;12.22;72.19
2841;BME280;53423;49.224;12.074;2022-10-30T03:51:38;98255.25;;;12.29;71.76
2841;BME280;53423;49.224;12.074;2022-10-30T03:54:06;98255.25;;;12.29;72.36
2841;BME280;53423;49.224;12.074;2022-10-30T03:56:34;98259.69;;;12.29;71.95
2841;BME280;53423;49.224;12.074;2022-10-30T03:59:01;98254.09;;;12.40;71.83
2841;BME280;53423;49.224;12.074;2022-10-30T04:01:29;98264.59;;;12.32;71.65
2841;BME280;53423;49.224;12.074;2022-10-30T04:03:58;98256.88;;;12.30;71.94
2841;BME280;53423;49.224;12.074;2022-10-30T04:06:26;98264.75;;;12.22;71.13
2841;BME280;53423;49.224;12.074;2022-10-30T04:08:54;98263.59;;;12.25;72.39
2841;BME280;53423;49.224;12.074;2022-10-30T04:11:22;98264.81;;;11.97;72.02
2841;BME280;53423;49.224;12.074;2022-10-30T04:13:50;98266.34;;;12.07;72.11
2841;BME280;53423;49.224;12.074;2022-10-30T04:16:17;98269.94;;;12.06;71.65
2841;BME280;53423;49.224;12.074;2022-10-30T04:18:45;98258.13;;;12.02;71.06
2841;BME280;53423;49.224;12.074;2022-10-30T04:21:14;98259.38;;;11.90;71.08
2841;BME280;53423;49.224;12.074;2022-10-30T04:23:42;98265.66;;;11.97;71.97
2841;BME280;53423;49.224;12.074;2022-10-30T04:26:10;98258.38;;;11.91;71.97
2841;BME280;53423;49.224;12.074;2022-10-30T04:28:38;98263.19;;;11.96;70.99
2841;BME280;53423;49.224;12.074;2022-10-30T04:31:05;98260.03;;;11.84;71.65
2841;BME280;53423;49.224;12.074;2022-10-30T04:33:33;98263.63;;;11.83;71.54
2841;BME280;53423;49.224;12.074;2022-10-30T04:36:01;98250.66;;;11.90;71.77
2841;BME280;53423;49.224;12.074;2022-10-30T04:38:30;98249.31;;;11.78;72.75
2841;BME280;53423;49.224;12.074;2022-10-30T04:40:58;98254.56;;;11.78;72.81
2841;BME280;53423;49.224;12.074;2022-10-30T04:43:26;98255.47;;;11.94;71.96
2841;BME280;53423;49.224;12.074;2022-10-30T04:45:54;98248.91;;;11.98;72.34
2841;BME280;53423;49.224;12.074;2022-10-30T04:48:21;98249.19;;;11.87;72.13
2841;BME280;53423;49.224;12.074;2022-10-30T04:50:49;98251.81;;;11.79;72.16
2841;BME280;53423;49.224;12.074;2022-10-30T04:53:18;98251.66;;;11.55;72.68
2841;BME280;53423;49.224;12.074;2022-10-30T04:55:52;98252.66;;;11.62;71.75
2841;BME280;53423;49.224;12.074;2022-10-30T04:58:20;98251.38;;;11.66;71.62
2841;BME280;53423;49.224;12.074;2022-10-30T05:00:48;98241.88;;;11.65;71.88
2841;BME280;53423;49.224;12.074;2022-10-30T05:03:18;98243.06;;;11.71;72.19
2841;BME280;53423;49.224;12.074;2022-10-30T05:05:46;98237.81;;;11.71;71.46
2841;BME280;53423;49.224;12.074;2022-10-30T05:08:15;98241.56;;;11.68;72.17
2841;BME280;53423;49.224;12.074;2022-10-30T05:10:43;98235.19;;;11.71;71.44
2841;BME280;53423;49.224;12.074;2022-10-30T05:13:12;98229.28;;;11.51;72.28
2841;BME280;53423;49.224;12.074;2022-10-30T05:15:39;98235.44;;;11.34;73.25
2841;BME280;53423;49.224;12.074;2022-10-30T05:18:07;98236.09;;;11.10;73.23
2841;BME280;53423;49.224;12.074;2022-10-30T05:20:35;98232.38;;;11.13;72.57
2841;BME280;53423;49.224;12.074;2022-10-30T05:23:03;98232.47;;;11.03;73.34
2841;BME280;53423;49.224;12.074;2022-10-30T05:25:31;98230.00;;;11.02;72.17
2841;BME280;53423;49.224;12.074;2022-10-30T05:27:59;98232.31;;;11.05;73.54
2841;BME280;53423;49.224;12.074;2022-10-30T05:30:30;98223.56;;;11.22;71.32
2841;BME280;53423;49.224;12.074;2022-10-30T05:32:58;98233.13;;;11.05;72.48
2841;BME280;53423;49.224;12.074;2022-10-30T05:35:26;98224.19;;;11.16;72.02
2841;BME280;53423;49.224;12.074;2022-10-30T05:37:54;98229.91;;;11.11;73.15
2841;BME280;53423;49.224;12.074;2022-10-30T05:40:22;98239.13;;;11.15;73.36
2841;BME280;53423;49.224;12.074;2022-10-30T05:42:50;98234.47;;;11.09;72.43
2841;BME280;53423;49.224;12.074;2022-10-30T05:45:18;98225.69;;;11.18;71.21
2841;BME280;53423;49.224;12.074;2022-10-30T05:47:55;98234.81;;;10.89;72.31
2841;BME280;53423;49.224;12.074;2022-10-30T05:50:23;98234.31;;;11.11;71.93
2841;BME280;53423;49.224;12.074;2022-10-30T05:52:54;98233.88;;;11.15;71.02
2841;BME280;53423;49.224;12.074;2022-10-30T05:55:22;98239.31;;;11.22;71.32
2841;BME280;53423;49.224;12.074;2022-10-30T05:57:54;98237.06;;;11.27;70.99
2841;BME280;53423;49.224;12.074;2022-10-30T06:00:23;98240.63;;;11.26;71.25
2841;BME280;53423;49.224;12.074;2022-10-30T06:02:50;98237.41;;;11.32;70.50
2841;BME280;53423;49.224;12.074;2022-10-30T06:05:19;98244.25;;;11.25;71.33
2841;BME280;53423;49.224;12.074;2022-10-30T06:07:47;98235.19;;;11.45;69.59
2841;BME280;53423;49.224;12.074;2022-10-30T06:10:15;98241.75;;;11.49;69.28
2841;BME280;53423;49.224;12.074;2022-10-30T06:12:43;98239.88;;;11.59;69.72
2841;BME280;53423;49.224;12.074;2022-10-30T06:15:18;98242.56;;;11.67;68.25
2841;BME280;53423;49.224;12.074;2022-10-30T06:17:46;98240.63;;;11.77;68.32
2841;BME280;53423;49.224;12.074;2022-10-30T06:20:14;98229.25;;;11.43;68.85
2841;BME280;53423;49.224;12.074;2022-10-30T06:22:52;98240.09;;;11.40;67.49
2841;BME280;53423;49.224;12.074;2022-10-30T06:25:20;98250.66;;;11.82;67.27
2841;BME280;53423;49.224;12.074;2022-10-30T06:27:48;98248.28;;;12.04;66.25
2841;BME280;53423;49.224;12.074;2022-10-30T06:30:16;98243.81;;;12.05;65.61
2841;BME280;53423;49.224;12.074;2022-10-30T06:32:44;98250.78;;;12.22;66.08
2841;BME280;53423;49.224;12.074;2022-10-30T06:35:12;98251.13;;;12.35;64.65
2841;BME280;53423;49.224;12.074;2022-10-30T06:37:45;98245.25;;;12.65;64.51
2841;BME280;53423;49.224;12.074;2022-10-30T06:40:14;98252.47;;;12.55;65.60
2841;BME280;53423;49.224;12.074;2022-10-30T06:42:42;98245.59;;;12.54;65.49
2841;BME280;53423;49.224;12.074;2022-10-30T06:45:11;98253.16;;;12.81;64.74
2841;BME280;53423;49.224;12.074;2022-10-30T06:47:39;98249.72;;;12.81;64.85
2841;BME280;53423;49.224;12.074;2022-10-30T06:50:10;98253.03;;;13.07;64.25
2841;BME280;53423;49.224;12.074;2022-10-30T06:52:38;98241.09;;;13.59;63.27
2841;BME280;53423;49.224;12.074;2022-10-30T06:55:08;98247.47;;;13.64;62.50
2841;BME280;53423;49.224;12.074;2022-10-30T06:57:36;98250.09;;;13.73;62.65
2841;BME280;53423;49.224;12.074;2022-10-30T07:00:06;98259.09;;;13.86;62.66
2841;BME280;53423;49.224;12.074;2022-10-30T07:02:34;98257.94;;;13.89;62.91
2841;BME280;53423;49.224;12.074;2022-10-30T07:05:01;98255.47;;;13.87;63.06
2841;BME280;53423;49.224;12.074;2022-10-30T07:07:29;98263.41;;;13.71;64.11
2841;BME280;53423;49.224;12.074;2022-10-30T07:09:57;98268.34;;;13.82;63.67
2841;BME280;53423;49.224;12.074;2022-10-30T07:12:26;98267.16;;;13.85;63.61
2841;BME280;53423;49.224;12.074;2022-10-30T07:14:54;98271.06;;;13.97;63.53
2841;BME280;53423;49.224;12.074;2022-10-30T07:17:21;98266.00;;;14.34;62.51
2841;BME280;53423;49.224;12.074;2022-10-30T07:19:49;98271.31;;;14.56;62.40
2841;BME280;53423;49.224;12.074;2022-10-30T07:22:17;98267.38;;;14.75;61.90
2841;BME280;53423;49.224;12.074;2022-10-30T07:24:45;98268.94;;;15.07;60.65
2841;BME280;53423;49.224;12.074;2022-10-30T07:27:12;98258.78;;;15.33;60.68
2841;BME280;53423;49.224;12.074;2022-10-30T07:29:41;98266.81;;;15.91;58.70
2841;BME280;53423;49.224;12.074;2022-10-30T07:32:10;98255.56;;;16.03;58.74
2841;BME280;53423;49.224;12.074;2022-10-30T07:34:38;98265.16;;;16.40;56.97
2841;BME280;53423;49.224;12.074;2022-10-30T07:37:06;98267.44;;;17.27;54.38
2841;BME280;53423;49.224;12.074;2022-10-30T07:39:34;98260.28;;;18.11;51.61
2841;BME280;53423;49.224;12.074;2022-10-30T07:42:01;98257.88;;;19.02;50.00
2841;BME280;53423;49.224;12.074;2022-10-30T07:44:29;98260.38;;;19.36;48.77
2841;BME280;53423;49.224;12.074;2022-10-30T07:46:58;98257.84;;;21.13;44.37
2841;BME280;53423;49.224;12.074;2022-10-30T07:49:26;98249.44;;;22.67;40.54
2841;BME280;53423;49.224;12.074;2022-10-30T07:51:54;98248.25;;;23.80;37.44
2841;BME280;53423;49.224;12.074;2022-10-30T07:54:21;98255.06;;;24.90;35.03
2841;BME280;53423;49.224;12.074;2022-10-30T07:56:49;98252.19;;;25.08;36.00
2841;BME280;53423;49.224;12.074;2022-10-30T07:59:17;98246.69;;;25.86;34.14
2841;BME280;53423;49.224;12.074;2022-10-30T08:01:45;98251.53;;;25.51;34.58
2841;BME280;53423;49.224;12.074;2022-10-30T08:04:14;98253.34;;;25.45;34.85
2841;BME280;53423;49.224;12.074;2022-10-30T08:06:42;98248.88;;;24.62;35.62
2841;BME280;53423;49.224;12.074;2022-10-30T08:09:10;98257.25;;;24.37;37.33
2841;BME280;53423;49.224;12.074;2022-10-30T08:11:37;98257.31;;;23.45;38.70
2841;BME280;53423;49.224;12.074;2022-10-30T08:14:05;98263.66;;;23.20;39.69
2841;BME280;53423;49.224;12.074;2022-10-30T08:16:33;98259.72;;;22.82;40.08
2841;BME280;53423;49.224;12.074;2022-10-30T08:19:01;98260.88;;;22.74;40.93
2841;BME280;53423;49.224;12.074;2022-10-30T08:21:30;98261.88;;;22.44;42.22
2841;BME280;53423;49.224;12.074;2022-10-30T08:23:57;98262.41;;;21.98;43.05
2841;BME280;53423;49.224;12.074;2022-10-30T08:26:25;98258.69;;;22.35;42.59
2841;BME280;53423;49.224;12.074;2022-10-30T08:28:53;98252.31;;;22.95;40.90
2841;BME280;53423;49.224;12.074;2022-10-30T08:31:21;98256.97;;;23.53;39.89
2841;BME280;53423;49.224;12.074;2022-10-30T08:33:48;98255.81;;;24.06;38.72
2841;BME280;53423;49.224;12.074;2022-10-30T08:36:16;98260.91;;;24.08;39.14
2841;BME280;53423;49.224;12.074;2022-10-30T08:38:45;98258.19;;;23.15;40.86
2841;BME280;53423;49.224;12.074;2022-10-30T08:41:13;98256.47;;;22.80;41.71
2841;BME280;53423;49.224;12.074;2022-10-30T08:43:41;98262.41;;;21.98;43.09
2841;BME280;53423;49.224;12.074;2022-10-30T08:46:08;98253.75;;;22.21;44.26
2841;BME280;53423;49.224;12.074;2022-10-30T08:48:36;98264.44;;;22.02;45.11
2841;BME280;53423;49.224;12.074;2022-10-30T08:51:04;98255.75;;;21.89;45.77
2841;BME280;53423;49.224;12.074;2022-10-30T08:53:32;98249.88;;;21.98;44.60
2841;BME280;53423;49.224;12.074;2022-10-30T08:56:01;98251.03;;;22.39;43.87
2841;BME280;53423;49.224;12.074;2022-10-30T08:58:29;98247.03;;;22.48;43.68
2841;BME280;53423;49.224;12.074;2022-10-30T09:00:57;98245.16;;;21.76;46.37
2841;BME280;53423;49.224;12.074;2022-10-30T09:03:27;98244.97;;;22.13;45.32
2841;BME280;53423;49.224;12.074;2022-10-30T09:05:57;98247.59;;;21.59;47.42
2841;BME280;53423;49.224;12.074;2022-10-30T09:08:25;98244.06;;;21.65;46.26
2841;BME280;53423;49.224;12.074;2022-10-30T09:10:53;98243.59;;;21.26;48.45
2841;BME280;53423;49.224;12.074;2022-10-30T09:13:23;98248.38;;;21.17;48.19
2841;BME280;53423;49.224;12.074;2022-10-30T09:15:51;98244.63;;;20.93;49.12
2841;BME280;53423;49.224;12.074;2022-10-30T09:18:18;98249.44;;;20.78;49.51
2841;BME280;53423;49.224;12.074;2022-10-30T09:20:47;98239.81;;;20.77;49.59
2841;BME280;53423;49.224;12.074;2022-10-30T09:23:15;98240.34;;;20.61;49.51
2841;BME280;53423;49.224;12.074;2022-10-30T09:25:43;98245.22;;;20.95;49.44
2841;BME280;53423;49.224;12.074;2022-10-30T09:28:10;98248.47;;;21.29;48.14
2841;BME280;53423;49.224;12.074;2022-10-30T09:30:39;98249.34;;;21.47;47.74
2841;BME280;53423;49.224;12.074;2022-10-30T09:33:07;98243.72;;;22.16;46.31
2841;BME280;53423;49.224;12.074;2022-10-30T09:35:35;98245.00;;;22.91;44.41
2841;BME280;53423;49.224;12.074;2022-10-30T09:38:03;98247.28;;;23.98;41.66
2841;BME280;53423;49.224;12.074;2022-10-30T09:40:40;98240.28;;;25.04;39.23
2841;BME280;53423;49.224;12.074;2022-10-30T09:43:22;98234.41;;;25.52;37.68
2841;BME280;53423;49.224;12.074;2022-10-30T09:46:14;98236.94;;;25.80;37.12
2841;BME280;53423;49.224;12.074;2022-10-30T09:49:01;98232.91;;;25.61;38.08
2841;BME280;53423;49.224;12.074;2022-10-30T09:51:44;98235.66;;;25.33;38.22
2841;BME280;53423;49.224;12.074;2022-10-30T09:54:24;98244.81;;;24.87;39.89
2841;BME280;53423;49.224;12.074;2022-10-30T09:56:59;98240.44;;;24.81;39.73
2841;BME280;53423;49.224;12.074;2022-10-30T09:59:37;98236.53;;;25.22;39.07
2841;BME280;53423;49.224;12.074;2022-10-30T10:02:20;98225.31;;;24.92;39.82
2841;BME280;53423;49.224;12.074;2022-10-30T10:04:57;98231.78;;;24.51;41.26
2841;BME280;53423;49.224;12.074;2022-10-30T10:07:29;98225.53;;;24.90;40.23
2841;BME280;53423;49.224;12.074;2022-10-30T10:10:00;98227.03;;;24.81;40.34
2841;BME280;53423;49.224;12.074;2022-10-30T10:12:36;98228.50;;;25.05;40.54
2841;BME280;53423;49.224;12.074;2022-10-30T10:15:11;98215.41;;;25.09;40.50
2841;BME280;53423;49.224;12.074;2022-10-30T10:17:44;98224.66;;;24.85;40.80
2841;BME280;53423;49.224;12.074;2022-10-30T10:20:16;98219.72;;;25.26;39.82
2841;BME280;53423;49.224;12.074;2022-10-30T10:22:47;98218.81;;;24.88;40.53
2841;BME280;53423;49.224;12.074;2022-10-30T10:25:17;98213.78;;;25.08;40.25
2841;BME280;53423;49.224;12.074;2022-10-30T10:27:53;98211.16;;;24.80;40.40
2841;BME280;53423;49.224;12.074;2022-10-30T10:30:28;98205.00;;;25.12;39.59
2841;BME280;53423;49.224;12.074;2022-10-30T10:33:16;98203.88;;;25.08;40.02
2841;BME280;53423;49.224;12.074;2022-10-30T10:39:05;98202.84;;;24.53;42.06
2841;BME280;53423;49.224;12.074;2022-10-30T10:41:47;98198.47;;;24.92;41.11
2841;BME280;53423;49.224;12.074;2022-10-30T10:44:28;98196.06;;;24.62;40.76
2841;BME280;53423;49.224;12.074;2022-10-30T10:47:04;98203.78;;;24.30;41.98
2841;BME280;53423;49.224;12.074;2022-10-30T10:49:49;98197.41;;;24.20;42.62
2841;BME280;53423;49.224;12.074;2022-10-30T10:52:23;98201.41;;;24.06;43.01
2841;BME280;53423;49.224;12.074;2022-10-30T10:54:55;98196.06;;;24.06;43.06
2841;BME280;53423;49.224;12.074;2022-10-30T10:57:26;98190.75;;;24.22;42.49
2841;BME280;53423;49.224;12.074;2022-10-30T10:59:57;98192.88;;;24.65;40.93
2841;BME280;53423;49.224;12.074;2022-10-30T11:02:33;98191.75;;;24.61;41.59
2841;BME280;53423;49.224;12.074;2022-10-30T11:05:15;98191.31;;;24.81;40.90
2841;BME280;53423;49.224;12.074;2022-10-30T11:07:46;98196.13;;;24.95;40.83
2841;BME280;53423;49.224;12.074;2022-10-30T11:10:16;98193.59;;;25.05;41.12
2841;BME280;53423;49.224;12.074;2022-10-30T11:12:45;98189.41;;;24.65;42.05
2841;BME280;53423;49.224;12.074;2022-10-30T11:15:28;98194.44;;;24.61;41.94
2841;BME280;53423;49.224;12.074;2022-10-30T11:18:01;98186.03;;;25.02;41.49
2841;BME280;53423;49.224;12.074;2022-10-30T11:20:43;98178.84;;;27.60;35.82
2841;BME280;53423;49.224;12.074;2022-10-30T11:23:32;98181.25;;;28.14;33.83
2841;BME280;53423;49.224;12.074;2022-10-30T11:26:01;98180.56;;;32.06;27.49
2841;BME280;53423;49.224;12.074;2022-10-30T11:28:35;98170.25;;;34.46;23.31
2841;BME280;53423;49.224;12.074;2022-10-30T11:31:16;98174.66;;;32.46;25.69
2841;BME280;53423;49.224;12.074;2022-10-30T11:33:45;98160.91;;;35.71;21.03
2841;BME280;53423;49.224;12.074;2022-10-30T11:36:16;98154.41;;;35.28;21.01
2841;BME280;53423;49.224;12.074;2022-10-30T11:38:44;98163.00;;;34.28;22.89
2841;BME280;53423;49.224;12.074;2022-10-30T11:41:12;98160.44;;;34.59;22.97
2841;BME280;53423;49.224;12.074;2022-10-30T11:43:41;98163.91;;;35.92;20.68
2841;BME280;53423;49.224;12.074;2022-10-30T11:46:14;98162.31;;;36.08;20.27
2841;BME280;53423;49.224;12.074;2022-10-30T11:48:47;98157.78;;;37.66;19.06
2841;BME280;53423;49.224;12.074;2022-10-30T11:51:31;98164.69;;;38.09;17.93
2841;BME280;53423;49.224;12.074;2022-10-30T11:54:00;98156.84;;;38.78;17.12
2841;BME280;53423;49.224;12.074;2022-10-30T11:56:30;98149.31;;;40.73;15.29
2841;BME280;53423;49.224;12.074;2022-10-30T11:59:01;98156.69;;;41.67;14.51
2841;BME280;53423;49.224;12.074;2022-10-30T12:01:31;98148.28;;;42.61;13.33
2841;BME280;53423;49.224;12.074;2022-10-30T12:04:13;98150.56;;;41.58;13.68
2841;BME280;53423;49.224;12.074;2022-10-30T12:06:42;98138.31;;;42.37;12.32
2841;BME280;53423;49.224;12.074;2022-10-30T12:09:12;98142.50;;;41.38;13.56
2841;BME280;53423;49.224;12.074;2022-10-30T12:11:41;98137.47;;;41.71;13.66
2841;BME280;53423;49.224;12.074;2022-10-30T12:14:16;98132.34;;;39.14;15.63
2841;BME280;53423;49.224;12.074;2022-10-30T12:16:46;98124.09;;;35.30;19.62
2841;BME280;53423;49.224;12.074;2022-10-30T12:19:16;98125.50;;;33.57;22.06
2841;BME280;53423;49.224;12.074;2022-10-30T12:21:49;98129.22;;;30.81;26.65
2841;BME280;53423;49.224;12.074;2022-10-30T12:24:20;98124.50;;;30.53;26.76
2841;BME280;53423;49.224;12.074;2022-10-30T12:26:53;98124.97;;;29.43;28.77
2841;BME280;53423;49.224;12.074;2022-10-30T12:29:25;98129.56;;;29.32;29.36
2841;BME280;53423;49.224;12.074;2022-10-30T12:32:17;98128.25;;;28.54;31.65
2841;BME280;53423;49.224;12.074;2022-10-30T12:34:51;98128.47;;;28.43;31.48
2841;BME280;53423;49.224;12.074;2022-10-30T12:37:26;98129.75;;;28.15;31.75
2841;BME280;53423;49.224;12.074;2022-10-30T12:39:59;98119.75;;;27.54;33.99
2841;BME280;53423;49.224;12.074;2022-10-30T12:42:30;98129.44;;;28.01;32.93
2841;BME280;53423;49.224;12.074;2022-10-30T12:45:07;98121.16;;;27.20;34.02
2841;BME280;53423;49.224;12.074;2022-10-30T12:47:44;98113.59;;;27.12;34.21
2841;BME280;53423;49.224;12.074;2022-10-30T12:50:17;98109.28;;;27.16;34.95
2841;BME280;53423;49.224;12.074;2022-10-30T12:52:52;98109.31;;;27.21;33.84
2841;BME280;53423;49.224;12.074;2022-10-30T12:55:25;98108.59;;;26.93;34.36
2841;BME280;53423;49.224;12.074;2022-10-30T12:58:00;98099.06;;;26.49;34.76
2841;BME280;53423;49.224;12.074;2022-10-30T13:00:37;98103.53;;;26.39;35.64
2841;BME280;53423;49.224;12.074;2022-10-30T13:03:20;98097.31;;;26.65;35.68
2841;BME280;53423;49.224;12.074;2022-10-30T13:05:52;98097.44;;;26.48;37.06
2841;BME280;53423;49.224;12.074;2022-10-30T13:08:26;98103.38;;;26.24;37.17
2841;BME280;53423;49.224;12.074;2022-10-30T13:11:02;98098.16;;;26.12;36.97
2841;BME280;53423;49.224;12.074;2022-10-30T13:13:34;98101.22;;;26.21;36.48
2841;BME280;53423;49.224;12.074;2022-10-30T13:16:07;98103.88;;;25.99;36.63
2841;BME280;53423;49.224;12.074;2022-10-30T13:18:38;98100.22;;;25.84;36.75
2841;BME280;53423;49.224;12.074;2022-10-30T13:21:20;98098.66;;;25.88;35.53